sensor_id;sensor_type;location;lat;lon;timestamp;temperature;humidity
59505;DHT22;45321;53.200;5.814;2023-06-04T00:01:21;14.60;66.30
59505;DHT22;45321;53.200;5.814;2023-06-04T00:03:47;14.50;66.80
59505;DHT22;45321;53.200;5.814;2023-06-04T00:06:13;14.50;66.80
59505;DHT22;45321;53.200;5.814;2023-06-04T00:08:39;14.50;66.90
59505;DHT22;45321;53.200;5.814;2023-06-04T00:11:04;14.50;67.20
59505;DHT22;45321;53.200;5.814;2023-06-04T00:13:30;14.40;67.40
59505;DHT22;45321;53.200;5.814;2023-06-04T00:15:56;14.40;67.40
59505;DHT22;45321;53.200;5.814;2023-06-04T00:18:22;14.30;67.50
59505;DHT22;45321;53.200;5.814;2023-06-04T00:20:47;14.30;67.70
59505;DHT22;45321;53.200;5.814;2023-06-04T00:23:13;14.30;67.80
59505;DHT22;45321;53.200;5.814;2023-06-04T00:25:39;14.30;67.90
59505;DHT22;45321;53.200;5.814;2023-06-04T00:28:05;14.20;68.00
59505;DHT22;45321;53.200;5.814;2023-06-04T00:30:31;14.30;68.10
59505;DHT22;45321;53.200;5.814;2023-06-04T00:32:58;14.20;68.00
59505;DHT22;45321;53.200;5.814;2023-06-04T00:35:24;14.20;68.30
59505;DHT22;45321;53.200;5.814;2023-06-04T00:37:49;14.20;68.30
59505;DHT22;45321;53.200;5.814;2023-06-04T00:40:15;14.20;68.40
59505;DHT22;45321;53.200;5.814;2023-06-04T00:42:41;14.20;68.80
59505;DHT22;45321;53.200;5.814;2023-06-04T00:45:07;14.20;68.60
59505;DHT22;45321;53.200;5.814;2023-06-04T00:47:35;14.10;68.70
59505;DHT22;45321;53.200;5.814;2023-06-04T00:50:01;14.10;69.00
59505;DHT22;45321;53.200;5.814;2023-06-04T00:52:28;14.10;69.20
59505;DHT22;45321;53.200;5.814;2023-06-04T00:54:53;14.10;69.30
59505;DHT22;45321;53.200;5.814;2023-06-04T00:57:23;14.00;69.40
59505;DHT22;45321;53.200;5.814;2023-06-04T00:59:49;14.00;69.20
59505;DHT22;45321;53.200;5.814;2023-06-04T01:02:18;14.00;69.80
59505;DHT22;45321;53.200;5.814;2023-06-04T01:07:55;13.90;70.10
59505;DHT22;45321;53.200;5.814;2023-06-04T01:10:21;13.90;70.10
59505;DHT22;45321;53.200;5.814;2023-06-04T01:12:47;13.90;70.00
59505;DHT22;45321;53.200;5.814;2023-06-04T01:15:13;13.80;70.30
59505;DHT22;45321;53.200;5.814;2023-06-04T01:17:40;13.80;70.50
59505;DHT22;45321;53.200;5.814;2023-06-04T01:20:30;13.80;70.60
59505;DHT22;45321;53.200;5.814;2023-06-04T01:25:41;13.80;71.10
59505;DHT22;45321;53.200;5.814;2023-06-04T01:28:10;13.80;70.70
59505;DHT22;45321;53.200;5.814;2023-06-04T01:30:38;13.70;70.70
59505;DHT22;45321;53.200;5.814;2023-06-04T01:33:18;13.70;70.90
59505;DHT22;45321;53.200;5.814;2023-06-04T01:35:44;13.70;70.70
59505;DHT22;45321;53.200;5.814;2023-06-04T01:38:10;13.70;70.80
59505;DHT22;45321;53.200;5.814;2023-06-04T01:40:36;13.70;70.70
59505;DHT22;45321;53.200;5.814;2023-06-04T01:43:03;13.70;71.20
59505;DHT22;45321;53.200;5.814;2023-06-04T01:45:29;13.60;71.10
59505;DHT22;45321;53.200;5.814;2023-06-04T01:47:55;13.60;71.00
59505;DHT22;45321;53.200;5.814;2023-06-04T01:50:22;13.50;71.40
59505;DHT22;45321;53.200;5.814;2023-06-04T01:52:48;13.50;71.60
59505;DHT22;45321;53.200;5.814;2023-06-04T01:55:15;13.50;71.30
59505;DHT22;45321;53.200;5.814;2023-06-04T01:57:42;13.50;71.60
59505;DHT22;45321;53.200;5.814;2023-06-04T02:00:10;13.50;71.60
59505;DHT22;45321;53.200;5.814;2023-06-04T02:02:37;13.50;71.50
59505;DHT22;45321;53.200;5.814;2023-06-04T02:05:04;13.50;71.60
59505;DHT22;45321;53.200;5.814;2023-06-04T02:07:37;13.50;71.90
59505;DHT22;45321;53.200;5.814;2023-06-04T02:10:08;13.40;71.80
59505;DHT22;45321;53.200;5.814;2023-06-04T02:12:36;13.40;71.90
59505;DHT22;45321;53.200;5.814;2023-06-04T02:15:02;13.40;72.00
59505;DHT22;45321;53.200;5.814;2023-06-04T02:17:29;13.40;72.00
59505;DHT22;45321;53.200;5.814;2023-06-04T02:19:58;13.40;72.30
59505;DHT22;45321;53.200;5.814;2023-06-04T02:22:25;13.30;72.50
59505;DHT22;45321;53.200;5.814;2023-06-04T02:24:51;13.30;72.90
59505;DHT22;45321;53.200;5.814;2023-06-04T02:27:17;13.30;73.20
59505;DHT22;45321;53.200;5.814;2023-06-04T02:29:43;13.30;73.00
59505;DHT22;45321;53.200;5.814;2023-06-04T02:32:09;13.30;73.00
59505;DHT22;45321;53.200;5.814;2023-06-04T02:34:35;13.30;73.30
59505;DHT22;45321;53.200;5.814;2023-06-04T02:37:02;13.30;73.50
59505;DHT22;45321;53.200;5.814;2023-06-04T02:39:28;13.30;73.50
59505;DHT22;45321;53.200;5.814;2023-06-04T02:41:53;13.30;73.60
59505;DHT22;45321;53.200;5.814;2023-06-04T02:44:19;13.20;73.60
59505;DHT22;45321;53.200;5.814;2023-06-04T02:46:45;13.20;73.90
59505;DHT22;45321;53.200;5.814;2023-06-04T02:49:12;13.20;73.90
59505;DHT22;45321;53.200;5.814;2023-06-04T02:51:42;13.20;73.90
59505;DHT22;45321;53.200;5.814;2023-06-04T02:54:09;13.10;73.90
59505;DHT22;45321;53.200;5.814;2023-06-04T02:56:36;13.20;74.10
59505;DHT22;45321;53.200;5.814;2023-06-04T02:59:03;13.20;74.00
59505;DHT22;45321;53.200;5.814;2023-06-04T03:01:29;13.10;74.00
59505;DHT22;45321;53.200;5.814;2023-06-04T03:03:56;13.10;74.40
59505;DHT22;45321;53.200;5.814;2023-06-04T03:06:26;13.10;74.00
59505;DHT22;45321;53.200;5.814;2023-06-04T03:08:52;13.10;74.20
59505;DHT22;45321;53.200;5.814;2023-06-04T03:11:18;13.10;74.30
59505;DHT22;45321;53.200;5.814;2023-06-04T03:13:50;13.10;74.50
59505;DHT22;45321;53.200;5.814;2023-06-04T03:16:18;13.10;74.30
59505;DHT22;45321;53.200;5.814;2023-06-04T03:18:44;13.10;74.30
59505;DHT22;45321;53.200;5.814;2023-06-04T03:21:10;13.00;74.70
59505;DHT22;45321;53.200;5.814;2023-06-04T03:23:39;13.00;74.70
59505;DHT22;45321;53.200;5.814;2023-06-04T03:26:06;13.00;74.80
59505;DHT22;45321;53.200;5.814;2023-06-04T03:28:32;13.00;75.00
59505;DHT22;45321;53.200;5.814;2023-06-04T03:30:58;13.00;74.70
59505;DHT22;45321;53.200;5.814;2023-06-04T03:33:25;13.00;74.70
59505;DHT22;45321;53.200;5.814;2023-06-04T03:35:51;13.00;74.70
59505;DHT22;45321;53.200;5.814;2023-06-04T03:38:18;13.10;74.60
59505;DHT22;45321;53.200;5.814;2023-06-04T03:40:45;13.00;74.70
59505;DHT22;45321;53.200;5.814;2023-06-04T03:43:11;13.00;74.60
59505;DHT22;45321;53.200;5.814;2023-06-04T03:45:37;13.00;74.70
59505;DHT22;45321;53.200;5.814;2023-06-04T03:48:02;13.00;75.00
59505;DHT22;45321;53.200;5.814;2023-06-04T03:50:28;13.00;74.90
59505;DHT22;45321;53.200;5.814;2023-06-04T03:52:54;12.90;74.80
59505;DHT22;45321;53.200;5.814;2023-06-04T03:55:20;12.90;75.10
59505;DHT22;45321;53.200;5.814;2023-06-04T03:57:45;12.90;74.90
59505;DHT22;45321;53.200;5.814;2023-06-04T04:00:12;12.90;75.00
59505;DHT22;45321;53.200;5.814;2023-06-04T04:02:39;12.90;75.20
59505;DHT22;45321;53.200;5.814;2023-06-04T04:05:05;12.90;75.20
59505;DHT22;45321;53.200;5.814;2023-06-04T04:07:31;12.90;75.30
59505;DHT22;45321;53.200;5.814;2023-06-04T04:09:57;12.90;75.50
59505;DHT22;45321;53.200;5.814;2023-06-04T04:12:22;12.90;75.40
59505;DHT22;45321;53.200;5.814;2023-06-04T04:14:48;12.90;75.60
59505;DHT22;45321;53.200;5.814;2023-06-04T04:17:14;12.90;75.50
59505;DHT22;45321;53.200;5.814;2023-06-04T04:19:40;12.90;75.50
59505;DHT22;45321;53.200;5.814;2023-06-04T04:22:06;13.00;75.50
59505;DHT22;45321;53.200;5.814;2023-06-04T04:24:32;13.00;75.60
59505;DHT22;45321;53.200;5.814;2023-06-04T04:27:01;13.00;75.80
59505;DHT22;45321;53.200;5.814;2023-06-04T04:29:30;13.00;76.40
59505;DHT22;45321;53.200;5.814;2023-06-04T04:31:59;13.00;76.20
59505;DHT22;45321;53.200;5.814;2023-06-04T04:34:38;13.00;76.10
59505;DHT22;45321;53.200;5.814;2023-06-04T04:37:08;13.00;76.40
59505;DHT22;45321;53.200;5.814;2023-06-04T04:39:35;13.10;76.70
59505;DHT22;45321;53.200;5.814;2023-06-04T04:42:04;13.10;76.60
59505;DHT22;45321;53.200;5.814;2023-06-04T04:44:30;13.10;76.40
59505;DHT22;45321;53.200;5.814;2023-06-04T04:46:56;13.10;76.60
59505;DHT22;45321;53.200;5.814;2023-06-04T04:49:22;13.10;76.70
59505;DHT22;45321;53.200;5.814;2023-06-04T04:51:48;13.20;76.90
59505;DHT22;45321;53.200;5.814;2023-06-04T04:54:14;13.20;76.90
59505;DHT22;45321;53.200;5.814;2023-06-04T04:56:40;13.20;76.80
59505;DHT22;45321;53.200;5.814;2023-06-04T04:59:06;13.30;77.30
59505;DHT22;45321;53.200;5.814;2023-06-04T05:01:32;13.30;77.20
59505;DHT22;45321;53.200;5.814;2023-06-04T05:03:57;13.30;77.10
59505;DHT22;45321;53.200;5.814;2023-06-04T05:06:23;13.30;77.50
59505;DHT22;45321;53.200;5.814;2023-06-04T05:08:49;13.40;77.60
59505;DHT22;45321;53.200;5.814;2023-06-04T05:11:15;13.50;77.70
59505;DHT22;45321;53.200;5.814;2023-06-04T05:13:40;13.50;77.60
59505;DHT22;45321;53.200;5.814;2023-06-04T05:16:07;13.50;77.60
59505;DHT22;45321;53.200;5.814;2023-06-04T05:18:42;13.50;77.40
59505;DHT22;45321;53.200;5.814;2023-06-04T05:21:10;13.60;77.80
59505;DHT22;45321;53.200;5.814;2023-06-04T05:23:38;13.60;77.60
59505;DHT22;45321;53.200;5.814;2023-06-04T05:26:04;13.70;77.70
59505;DHT22;45321;53.200;5.814;2023-06-04T05:28:31;13.80;77.50
59505;DHT22;45321;53.200;5.814;2023-06-04T05:30:59;13.80;77.20
59505;DHT22;45321;53.200;5.814;2023-06-04T05:33:26;13.80;77.50
59505;DHT22;45321;53.200;5.814;2023-06-04T05:35:51;13.90;77.10
59505;DHT22;45321;53.200;5.814;2023-06-04T05:38:17;13.90;77.20
59505;DHT22;45321;53.200;5.814;2023-06-04T05:40:53;13.90;77.40
59505;DHT22;45321;53.200;5.814;2023-06-04T05:43:18;14.00;77.30
59505;DHT22;45321;53.200;5.814;2023-06-04T05:45:44;14.00;77.00
59505;DHT22;45321;53.200;5.814;2023-06-04T05:48:10;14.00;77.00
59505;DHT22;45321;53.200;5.814;2023-06-04T05:50:36;14.00;77.40
59505;DHT22;45321;53.200;5.814;2023-06-04T05:53:02;14.10;77.20
59505;DHT22;45321;53.200;5.814;2023-06-04T05:55:28;14.10;76.90
59505;DHT22;45321;53.200;5.814;2023-06-04T05:57:54;14.20;77.10
59505;DHT22;45321;53.200;5.814;2023-06-04T06:00:21;14.20;77.10
59505;DHT22;45321;53.200;5.814;2023-06-04T06:02:47;14.30;77.40
59505;DHT22;45321;53.200;5.814;2023-06-04T06:05:17;14.30;77.10
59505;DHT22;45321;53.200;5.814;2023-06-04T06:07:44;14.30;76.70
59505;DHT22;45321;53.200;5.814;2023-06-04T06:10:10;14.40;77.30
59505;DHT22;45321;53.200;5.814;2023-06-04T06:12:35;14.40;77.00
59505;DHT22;45321;53.200;5.814;2023-06-04T06:15:02;14.40;77.00
59505;DHT22;45321;53.200;5.814;2023-06-04T06:17:28;14.50;76.90
59505;DHT22;45321;53.200;5.814;2023-06-04T06:19:54;14.60;76.80
59505;DHT22;45321;53.200;5.814;2023-06-04T06:22:20;14.60;76.60
59505;DHT22;45321;53.200;5.814;2023-06-04T06:24:46;14.70;76.50
59505;DHT22;45321;53.200;5.814;2023-06-04T06:27:14;14.80;76.20
59505;DHT22;45321;53.200;5.814;2023-06-04T06:29:40;14.90;76.30
59505;DHT22;45321;53.200;5.814;2023-06-04T06:32:07;15.00;76.20
59505;DHT22;45321;53.200;5.814;2023-06-04T06:34:33;15.10;75.70
59505;DHT22;45321;53.200;5.814;2023-06-04T06:36:59;15.20;75.20
59505;DHT22;45321;53.200;5.814;2023-06-04T06:39:25;15.30;74.80
59505;DHT22;45321;53.200;5.814;2023-06-04T06:41:51;15.30;74.40
59505;DHT22;45321;53.200;5.814;2023-06-04T06:44:17;15.30;74.30
59505;DHT22;45321;53.200;5.814;2023-06-04T06:46:43;15.40;73.90
59505;DHT22;45321;53.200;5.814;2023-06-04T06:49:08;15.50;73.50
59505;DHT22;45321;53.200;5.814;2023-06-04T06:51:34;15.70;73.40
59505;DHT22;45321;53.200;5.814;2023-06-04T06:54:00;15.70;72.80
59505;DHT22;45321;53.200;5.814;2023-06-04T06:56:26;15.80;72.70
59505;DHT22;45321;53.200;5.814;2023-06-04T06:58:52;15.80;72.20
59505;DHT22;45321;53.200;5.814;2023-06-04T07:01:23;15.90;71.70
59505;DHT22;45321;53.200;5.814;2023-06-04T07:03:55;15.90;71.40
59505;DHT22;45321;53.200;5.814;2023-06-04T07:06:21;16.00;71.20
59505;DHT22;45321;53.200;5.814;2023-06-04T07:08:46;16.10;70.90
59505;DHT22;45321;53.200;5.814;2023-06-04T07:11:13;16.20;70.60
59505;DHT22;45321;53.200;5.814;2023-06-04T07:13:39;16.30;70.20
59505;DHT22;45321;53.200;5.814;2023-06-04T07:16:05;16.40;69.80
59505;DHT22;45321;53.200;5.814;2023-06-04T07:18:31;16.50;69.90
59505;DHT22;45321;53.200;5.814;2023-06-04T07:20:57;16.60;69.00
59505;DHT22;45321;53.200;5.814;2023-06-04T07:23:23;16.70;68.90
59505;DHT22;45321;53.200;5.814;2023-06-04T07:25:49;16.80;68.20
59505;DHT22;45321;53.200;5.814;2023-06-04T07:28:15;16.80;68.10
59505;DHT22;45321;53.200;5.814;2023-06-04T07:30:41;16.90;68.00
59505;DHT22;45321;53.200;5.814;2023-06-04T07:33:07;17.00;67.10
59505;DHT22;45321;53.200;5.814;2023-06-04T07:35:32;17.10;66.50
59505;DHT22;45321;53.200;5.814;2023-06-04T07:37:58;17.20;66.30
59505;DHT22;45321;53.200;5.814;2023-06-04T07:40:24;17.20;65.80
59505;DHT22;45321;53.200;5.814;2023-06-04T07:42:50;17.30;65.70
59505;DHT22;45321;53.200;5.814;2023-06-04T07:45:16;17.30;64.80
59505;DHT22;45321;53.200;5.814;2023-06-04T07:47:43;17.40;65.30
59505;DHT22;45321;53.200;5.814;2023-06-04T07:50:09;17.50;65.10
59505;DHT22;45321;53.200;5.814;2023-06-04T07:52:35;17.60;64.20
59505;DHT22;45321;53.200;5.814;2023-06-04T07:55:01;17.70;63.80
59505;DHT22;45321;53.200;5.814;2023-06-04T07:57:27;17.80;64.50
59505;DHT22;45321;53.200;5.814;2023-06-04T07:59:53;17.90;64.50
59505;DHT22;45321;53.200;5.814;2023-06-04T08:02:19;17.90;63.90
59505;DHT22;45321;53.200;5.814;2023-06-04T08:04:45;18.00;63.50
59505;DHT22;45321;53.200;5.814;2023-06-04T08:07:12;18.00;63.60
59505;DHT22;45321;53.200;5.814;2023-06-04T08:09:38;18.10;63.40
59505;DHT22;45321;53.200;5.814;2023-06-04T08:12:04;18.20;63.50
59505;DHT22;45321;53.200;5.814;2023-06-04T08:14:30;18.20;61.90
59505;DHT22;45321;53.200;5.814;2023-06-04T08:16:57;18.30;62.30
59505;DHT22;45321;53.200;5.814;2023-06-04T08:19:23;18.30;61.40
59505;DHT22;45321;53.200;5.814;2023-06-04T08:21:49;18.30;62.00
59505;DHT22;45321;53.200;5.814;2023-06-04T08:24:15;18.30;61.40
59505;DHT22;45321;53.200;5.814;2023-06-04T08:26:41;18.40;62.00
59505;DHT22;45321;53.200;5.814;2023-06-04T08:29:07;18.50;62.10
59505;DHT22;45321;53.200;5.814;2023-06-04T08:31:33;18.60;62.20
59505;DHT22;45321;53.200;5.814;2023-06-04T08:33:58;18.70;60.60
59505;DHT22;45321;53.200;5.814;2023-06-04T08:36:24;18.70;60.60
59505;DHT22;45321;53.200;5.814;2023-06-04T08:38:50;18.80;61.00
59505;DHT22;45321;53.200;5.814;2023-06-04T08:41:26;18.90;61.00
59505;DHT22;45321;53.200;5.814;2023-06-04T08:43:56;19.00;60.80
59505;DHT22;45321;53.200;5.814;2023-06-04T08:46:23;19.00;59.70
59505;DHT22;45321;53.200;5.814;2023-06-04T08:48:50;19.00;59.80
59505;DHT22;45321;53.200;5.814;2023-06-04T08:51:15;19.10;59.90
59505;DHT22;45321;53.200;5.814;2023-06-04T08:53:42;19.20;59.50
59505;DHT22;45321;53.200;5.814;2023-06-04T08:56:08;19.10;59.80
59505;DHT22;45321;53.200;5.814;2023-06-04T08:58:36;19.10;58.90
59505;DHT22;45321;53.200;5.814;2023-06-04T09:01:02;19.10;59.30
59505;DHT22;45321;53.200;5.814;2023-06-04T09:03:29;19.20;59.20
59505;DHT22;45321;53.200;5.814;2023-06-04T09:05:58;19.20;58.10
59505;DHT22;45321;53.200;5.814;2023-06-04T09:08:26;19.30;57.40
59505;DHT22;45321;53.200;5.814;2023-06-04T09:10:55;19.30;57.10
59505;DHT22;45321;53.200;5.814;2023-06-04T09:13:27;19.30;57.80
59505;DHT22;45321;53.200;5.814;2023-06-04T09:16:01;19.40;56.70
59505;DHT22;45321;53.200;5.814;2023-06-04T09:18:28;19.40;57.20
59505;DHT22;45321;53.200;5.814;2023-06-04T09:21:04;19.50;56.50
59505;DHT22;45321;53.200;5.814;2023-06-04T09:23:35;19.60;56.50
59505;DHT22;45321;53.200;5.814;2023-06-04T09:26:08;19.70;56.60
59505;DHT22;45321;53.200;5.814;2023-06-04T09:28:35;19.70;55.90
59505;DHT22;45321;53.200;5.814;2023-06-04T09:31:02;19.80;55.50
59505;DHT22;45321;53.200;5.814;2023-06-04T09:33:28;19.80;54.90
59505;DHT22;45321;53.200;5.814;2023-06-04T09:35:55;19.90;55.40
59505;DHT22;45321;53.200;5.814;2023-06-04T09:38:21;20.00;54.70
59505;DHT22;45321;53.200;5.814;2023-06-04T09:40:47;20.00;54.60
59505;DHT22;45321;53.200;5.814;2023-06-04T09:43:24;20.10;53.60
59505;DHT22;45321;53.200;5.814;2023-06-04T09:45:50;20.20;54.00
59505;DHT22;45321;53.200;5.814;2023-06-04T09:48:19;20.20;53.60
59505;DHT22;45321;53.200;5.814;2023-06-04T09:50:46;20.20;53.50
59505;DHT22;45321;53.200;5.814;2023-06-04T09:53:17;20.30;52.30
59505;DHT22;45321;53.200;5.814;2023-06-04T09:55:43;20.30;52.70
59505;DHT22;45321;53.200;5.814;2023-06-04T09:58:10;20.30;53.50
59505;DHT22;45321;53.200;5.814;2023-06-04T10:00:38;20.30;54.20
59505;DHT22;45321;53.200;5.814;2023-06-04T10:03:04;20.40;53.30
59505;DHT22;45321;53.200;5.814;2023-06-04T10:05:32;20.50;53.60
59505;DHT22;45321;53.200;5.814;2023-06-04T10:08:04;20.50;53.90
59505;DHT22;45321;53.200;5.814;2023-06-04T10:10:34;20.60;53.40
59505;DHT22;45321;53.200;5.814;2023-06-04T10:13:09;20.70;52.70
59505;DHT22;45321;53.200;5.814;2023-06-04T10:15:40;20.70;51.40
59505;DHT22;45321;53.200;5.814;2023-06-04T10:18:06;20.70;51.60
59505;DHT22;45321;53.200;5.814;2023-06-04T10:20:33;20.70;52.50
59505;DHT22;45321;53.200;5.814;2023-06-04T10:23:00;20.70;53.00
59505;DHT22;45321;53.200;5.814;2023-06-04T10:25:28;20.70;52.70
59505;DHT22;45321;53.200;5.814;2023-06-04T10:27:54;20.90;52.50
59505;DHT22;45321;53.200;5.814;2023-06-04T10:30:20;20.90;52.90
59505;DHT22;45321;53.200;5.814;2023-06-04T10:32:46;21.10;51.40
59505;DHT22;45321;53.200;5.814;2023-06-04T10:35:33;21.20;52.00
59505;DHT22;45321;53.200;5.814;2023-06-04T10:38:09;21.20;51.00
59505;DHT22;45321;53.200;5.814;2023-06-04T10:40:36;21.30;52.20
59505;DHT22;45321;53.200;5.814;2023-06-04T10:45:32;21.50;51.60
59505;DHT22;45321;53.200;5.814;2023-06-04T10:48:08;21.50;49.50
59505;DHT22;45321;53.200;5.814;2023-06-04T10:50:36;21.70;49.40
59505;DHT22;45321;53.200;5.814;2023-06-04T10:53:12;21.80;50.80
59505;DHT22;45321;53.200;5.814;2023-06-04T10:55:45;22.00;50.50
59505;DHT22;45321;53.200;5.814;2023-06-04T10:58:12;22.10;50.00
59505;DHT22;45321;53.200;5.814;2023-06-04T11:00:39;22.10;49.50
59505;DHT22;45321;53.200;5.814;2023-06-04T11:03:06;22.20;49.70
59505;DHT22;45321;53.200;5.814;2023-06-04T11:05:40;22.40;50.00
59505;DHT22;45321;53.200;5.814;2023-06-04T11:08:06;22.50;49.40
59505;DHT22;45321;53.200;5.814;2023-06-04T11:10:37;22.70;49.40
59505;DHT22;45321;53.200;5.814;2023-06-04T11:13:04;22.80;48.50
59505;DHT22;45321;53.200;5.814;2023-06-04T11:15:44;22.90;49.10
59505;DHT22;45321;53.200;5.814;2023-06-04T11:18:21;23.10;48.10
59505;DHT22;45321;53.200;5.814;2023-06-04T11:20:48;23.20;48.20
59505;DHT22;45321;53.200;5.814;2023-06-04T11:23:15;23.30;47.70
59505;DHT22;45321;53.200;5.814;2023-06-04T11:25:42;23.40;48.00
59505;DHT22;45321;53.200;5.814;2023-06-04T11:28:14;23.60;47.80
59505;DHT22;45321;53.200;5.814;2023-06-04T11:30:41;23.70;45.70
59505;DHT22;45321;53.200;5.814;2023-06-04T11:33:06;23.70;46.30
59505;DHT22;45321;53.200;5.814;2023-06-04T11:35:41;23.70;46.40
59505;DHT22;45321;53.200;5.814;2023-06-04T11:38:08;23.80;46.80
59505;DHT22;45321;53.200;5.814;2023-06-04T11:40:35;23.80;46.80
59505;DHT22;45321;53.200;5.814;2023-06-04T11:43:01;23.80;46.10
59505;DHT22;45321;53.200;5.814;2023-06-04T11:45:27;23.80;45.60
59505;DHT22;45321;53.200;5.814;2023-06-04T11:47:56;23.90;46.00
59505;DHT22;45321;53.200;5.814;2023-06-04T11:50:25;24.10;46.60
59505;DHT22;45321;53.200;5.814;2023-06-04T11:52:52;24.20;45.20
59505;DHT22;45321;53.200;5.814;2023-06-04T11:55:18;24.30;44.90
59505;DHT22;45321;53.200;5.814;2023-06-04T11:57:46;24.30;45.40
59505;DHT22;45321;53.200;5.814;2023-06-04T12:00:12;24.50;44.60
59505;DHT22;45321;53.200;5.814;2023-06-04T12:02:52;24.60;44.50
59505;DHT22;45321;53.200;5.814;2023-06-04T12:05:19;24.70;44.10
59505;DHT22;45321;53.200;5.814;2023-06-04T12:07:45;24.60;44.60
59505;DHT22;45321;53.200;5.814;2023-06-04T12:10:11;24.70;44.90
59505;DHT22;45321;53.200;5.814;2023-06-04T12:12:37;24.80;44.40
59505;DHT22;45321;53.200;5.814;2023-06-04T12:15:04;24.70;43.90
59505;DHT22;45321;53.200;5.814;2023-06-04T12:17:33;24.70;44.20
59505;DHT22;45321;53.200;5.814;2023-06-04T12:20:01;24.80;44.70
59505;DHT22;45321;53.200;5.814;2023-06-04T12:22:27;24.90;45.10
59505;DHT22;45321;53.200;5.814;2023-06-04T12:24:55;25.10;44.00
59505;DHT22;45321;53.200;5.814;2023-06-04T12:27:23;25.20;43.80
59505;DHT22;45321;53.200;5.814;2023-06-04T12:30:02;25.20;43.00
59505;DHT22;45321;53.200;5.814;2023-06-04T12:32:28;25.20;44.10
59505;DHT22;45321;53.200;5.814;2023-06-04T12:34:55;25.30;43.70
59505;DHT22;45321;53.200;5.814;2023-06-04T12:37:22;25.50;43.50
59505;DHT22;45321;53.200;5.814;2023-06-04T12:39:50;25.50;43.40
59505;DHT22;45321;53.200;5.814;2023-06-04T12:42:18;25.60;42.90
59505;DHT22;45321;53.200;5.814;2023-06-04T12:44:44;25.60;43.10
59505;DHT22;45321;53.200;5.814;2023-06-04T12:47:10;25.70;43.10
59505;DHT22;45321;53.200;5.814;2023-06-04T12:49:37;25.70;42.10
59505;DHT22;45321;53.200;5.814;2023-06-04T12:52:04;25.70;41.70
59505;DHT22;45321;53.200;5.814;2023-06-04T12:54:33;25.70;42.40
59505;DHT22;45321;53.200;5.814;2023-06-04T12:56:59;25.70;42.40
59505;DHT22;45321;53.200;5.814;2023-06-04T12:59:27;25.90;42.70
59505;DHT22;45321;53.200;5.814;2023-06-04T13:01:55;26.10;41.50
59505;DHT22;45321;53.200;5.814;2023-06-04T13:04:20;26.10;41.40
59505;DHT22;45321;53.200;5.814;2023-06-04T13:06:46;26.10;41.10
59505;DHT22;45321;53.200;5.814;2023-06-04T13:09:12;26.20;41.10
59505;DHT22;45321;53.200;5.814;2023-06-04T13:11:40;26.20;41.40
59505;DHT22;45321;53.200;5.814;2023-06-04T13:14:06;26.30;40.80
59505;DHT22;45321;53.200;5.814;2023-06-04T13:16:32;26.50;40.30
59505;DHT22;45321;53.200;5.814;2023-06-04T13:18:57;26.50;40.50
59505;DHT22;45321;53.200;5.814;2023-06-04T13:21:23;26.60;39.70
59505;DHT22;45321;53.200;5.814;2023-06-04T13:23:51;26.60;40.40
59505;DHT22;45321;53.200;5.814;2023-06-04T13:26:20;26.70;40.10
59505;DHT22;45321;53.200;5.814;2023-06-04T13:28:47;26.80;39.40
59505;DHT22;45321;53.200;5.814;2023-06-04T13:31:13;26.80;39.80
59505;DHT22;45321;53.200;5.814;2023-06-04T13:33:39;26.90;39.40
59505;DHT22;45321;53.200;5.814;2023-06-04T13:36:05;27.00;39.70
59505;DHT22;45321;53.200;5.814;2023-06-04T13:38:32;27.00;39.10
59505;DHT22;45321;53.200;5.814;2023-06-04T13:40:58;27.10;39.60
59505;DHT22;45321;53.200;5.814;2023-06-04T13:43:25;27.20;38.70
59505;DHT22;45321;53.200;5.814;2023-06-04T13:45:51;27.20;38.70
59505;DHT22;45321;53.200;5.814;2023-06-04T13:48:17;27.20;38.80
59505;DHT22;45321;53.200;5.814;2023-06-04T13:50:43;27.40;38.50
59505;DHT22;45321;53.200;5.814;2023-06-04T13:53:09;27.40;37.60
59505;DHT22;45321;53.200;5.814;2023-06-04T13:55:35;27.50;38.20
59505;DHT22;45321;53.200;5.814;2023-06-04T13:58:01;27.70;37.40
59505;DHT22;45321;53.200;5.814;2023-06-04T14:00:26;27.80;37.50
59505;DHT22;45321;53.200;5.814;2023-06-04T14:02:56;28.00;37.40
59505;DHT22;45321;53.200;5.814;2023-06-04T14:05:23;28.10;36.50
59505;DHT22;45321;53.200;5.814;2023-06-04T14:07:50;28.10;36.40
59505;DHT22;45321;53.200;5.814;2023-06-04T14:10:16;28.10;36.50
59505;DHT22;45321;53.200;5.814;2023-06-04T14:12:42;28.30;36.10
59505;DHT22;45321;53.200;5.814;2023-06-04T14:15:10;28.40;36.20
59505;DHT22;45321;53.200;5.814;2023-06-04T14:17:37;28.50;36.10
59505;DHT22;45321;53.200;5.814;2023-06-04T14:20:04;28.50;35.50
59505;DHT22;45321;53.200;5.814;2023-06-04T14:22:35;28.60;35.70
59505;DHT22;45321;53.200;5.814;2023-06-04T14:25:06;28.70;35.20
59505;DHT22;45321;53.200;5.814;2023-06-04T14:27:33;28.80;35.00
59505;DHT22;45321;53.200;5.814;2023-06-04T14:29:59;28.90;34.80
59505;DHT22;45321;53.200;5.814;2023-06-04T14:32:24;29.10;34.80
59505;DHT22;45321;53.200;5.814;2023-06-04T14:34:51;29.20;34.80
59505;DHT22;45321;53.200;5.814;2023-06-04T14:37:17;29.30;34.30
59505;DHT22;45321;53.200;5.814;2023-06-04T14:39:42;29.60;34.00
59505;DHT22;45321;53.200;5.814;2023-06-04T14:42:08;29.70;33.50
59505;DHT22;45321;53.200;5.814;2023-06-04T14:44:34;29.60;33.40
59505;DHT22;45321;53.200;5.814;2023-06-04T14:47:00;29.50;34.00
59505;DHT22;45321;53.200;5.814;2023-06-04T14:49:25;29.60;33.80
59505;DHT22;45321;53.200;5.814;2023-06-04T14:51:51;29.90;33.70
59505;DHT22;45321;53.200;5.814;2023-06-04T14:54:17;30.20;33.10
59505;DHT22;45321;53.200;5.814;2023-06-04T14:56:43;30.30;33.20
59505;DHT22;45321;53.200;5.814;2023-06-04T14:59:09;30.20;33.10
59505;DHT22;45321;53.200;5.814;2023-06-04T15:01:38;30.10;32.80
59505;DHT22;45321;53.200;5.814;2023-06-04T15:04:06;29.90;32.90
59505;DHT22;45321;53.200;5.814;2023-06-04T15:06:32;29.60;33.30
59505;DHT22;45321;53.200;5.814;2023-06-04T15:08:58;29.40;33.60
59505;DHT22;45321;53.200;5.814;2023-06-04T15:11:24;29.20;33.60
59505;DHT22;45321;53.200;5.814;2023-06-04T15:13:53;28.90;33.60
59505;DHT22;45321;53.200;5.814;2023-06-04T15:16:20;28.80;33.90
59505;DHT22;45321;53.200;5.814;2023-06-04T15:18:46;28.90;33.90
59505;DHT22;45321;53.200;5.814;2023-06-04T15:21:12;29.00;34.00
59505;DHT22;45321;53.200;5.814;2023-06-04T15:23:38;29.00;33.80
59505;DHT22;45321;53.200;5.814;2023-06-04T15:26:04;28.80;34.30
59505;DHT22;45321;53.200;5.814;2023-06-04T15:28:30;28.40;34.60
59505;DHT22;45321;53.200;5.814;2023-06-04T15:30:55;27.80;35.50
59505;DHT22;45321;53.200;5.814;2023-06-04T15:33:21;27.20;36.20
59505;DHT22;45321;53.200;5.814;2023-06-04T15:35:47;26.80;37.10
59505;DHT22;45321;53.200;5.814;2023-06-04T15:38:12;26.50;37.70